This is the latest recevied weather packets stored in our database for station/object KB1JDX. If no packets are shown the sender has not sent any weather packets the latest 10 day(s).
| Time | Temp. | Humidity | Pressure | Rain* | Wind** | Luminosity | Snow |
|---|---|---|---|---|---|---|---|
| 1777598365 | 11.67° C | 20% | 1007.2 hPa | 0 mm | 0 m/s | - | - |
| 1777597230 | 11.67° C | 23% | 1006.8 hPa | 0 mm | 0 m/s | - | - |
| 1777596030 | 12.22° C | 28% | 1006.7 hPa | 0 mm | 0 m/s | - | - |
| 1777594830 | 12.22° C | 32% | 1006.6 hPa | 0 mm | 0 m/s | - | - |
| 1777594765 | 12.22° C | 33% | 1006.6 hPa | 0 mm | 0 m/s | - | - |
| 1777593630 | 12.22° C | 41% | 1006.3 hPa | 0 mm | 0 m/s | - | - |
| 1777592430 | 12.78° C | 47% | 1006.2 hPa | 0 mm | 0 m/s | - | - |
| 1777591230 | 13.33° C | 50% | 1006.2 hPa | 0 mm | 0 m/s | - | - |
| 1777591165 | 13.33° C | 50% | 1006.2 hPa | 0 mm | 0 m/s | - | - |
| 1777590030 | 13.33° C | 51% | 1005.8 hPa | 0 mm | 0 m/s | - | - |
| 1777588829 | 13.33° C | 53% | 1005.8 hPa | 0 mm | 0 m/s | - | - |
| 1777587629 | 13.33° C | 55% | 1005.7 hPa | 0 mm | 0 m/s | - | - |
| 1777587565 | 13.33° C | 54% | 1005.6 hPa | 0 mm | 0 m/s | - | - |
| 1777586429 | 13.89° C | 55% | 1005.7 hPa | 0 mm | 0 m/s | - | - |
| 1777585229 | 13.33° C | 54% | 1005.6 hPa | 0 mm | 0 m/s | - | - |
| 1777583965 | 13.33° C | 55% | 1005.2 hPa | 0 mm | 0 m/s | - | - |
| 1777582829 | 13.89° C | 56% | 1005.1 hPa | 0 mm | 0 m/s | - | - |
| 1777581631 | 13.89° C | 56% | 1005.2 hPa | 0 mm | 0 m/s | - | - |
| 1777580429 | 13.89° C | 55% | 1005.2 hPa | 0 mm | 0 m/s | - | - |
| 1777580365 | 13.89° C | 54% | 1005.2 hPa | 0 mm | 0 m/s | - | - |
| 1777579229 | 13.33° C | 54% | 1005.1 hPa | 0 mm | 0 m/s | - | - |
| 1777578030 | 12.78° C | 45% | 1005.4 hPa | 0 mm | 0 m/s | - | - |
| 1777576829 | 12.78° C | 41% | 1005.5 hPa | 0 mm | 0 m/s | - | - |
| 1777576765 | 12.78° C | 41% | 1005.5 hPa | 0 mm | 0 m/s | - | - |
| 1777575630 | 12.22° C | 32% | 1005.7 hPa | 0 mm | 0 m/s | - | - |
* Rain latest hour (hover to see other rain measurements)
** Current wind speed in m/s (hover to see current wind gust speed)